sensor_id;sensor_type;location;lat;lon;timestamp;P1;durP1;ratioP1;P2;durP2;ratioP2
50709;SDS011;37033;49.994;21.992;2022-09-04T00:03:08;12.80;;;7.90;;
50709;SDS011;37033;49.994;21.992;2022-09-04T00:06:09;16.10;;;8.40;;
50709;SDS011;37033;49.994;21.992;2022-09-04T00:09:04;12.30;;;7.70;;
50709;SDS011;37033;49.994;21.992;2022-09-04T00:12:06;14.50;;;7.40;;
50709;SDS011;37033;49.994;21.992;2022-09-04T00:14:58;11.40;;;6.40;;
50709;SDS011;37033;49.994;21.992;2022-09-04T00:17:55;9.60;;;7.20;;
50709;SDS011;37033;49.994;21.992;2022-09-04T00:20:51;14.60;;;6.90;;
50709;SDS011;37033;49.994;21.992;2022-09-04T00:23:49;13.80;;;7.10;;
50709;SDS011;37033;49.994;21.992;2022-09-04T00:26:45;10.90;;;7.80;;
50709;SDS011;37033;49.994;21.992;2022-09-04T00:29:42;11.40;;;7.90;;
50709;SDS011;37033;49.994;21.992;2022-09-04T00:32:39;12.50;;;7.60;;
50709;SDS011;37033;49.994;21.992;2022-09-04T00:35:32;11.10;;;7.20;;
50709;SDS011;37033;49.994;21.992;2022-09-04T00:38:30;12.30;;;7.70;;
50709;SDS011;37033;49.994;21.992;2022-09-04T00:41:28;10.20;;;7.10;;
50709;SDS011;37033;49.994;21.992;2022-09-04T00:44:33;11.00;;;7.50;;
50709;SDS011;37033;49.994;21.992;2022-09-04T00:47:56;11.00;;;7.40;;
50709;SDS011;37033;49.994;21.992;2022-09-04T00:51:10;11.70;;;7.50;;
50709;SDS011;37033;49.994;21.992;2022-09-04T00:54:12;10.10;;;6.90;;
50709;SDS011;37033;49.994;21.992;2022-09-04T00:57:39;10.40;;;6.90;;
50709;SDS011;37033;49.994;21.992;2022-09-04T01:00:43;8.80;;;6.80;;
50709;SDS011;37033;49.994;21.992;2022-09-04T01:03:47;9.00;;;7.10;;
50709;SDS011;37033;49.994;21.992;2022-09-04T01:06:52;8.80;;;6.60;;
50709;SDS011;37033;49.994;21.992;2022-09-04T01:10:02;9.70;;;6.80;;
50709;SDS011;37033;49.994;21.992;2022-09-04T01:13:14;9.00;;;6.70;;
50709;SDS011;37033;49.994;21.992;2022-09-04T01:16:14;11.80;;;6.70;;
50709;SDS011;37033;49.994;21.992;2022-09-04T01:19:14;10.90;;;6.90;;
50709;SDS011;37033;49.994;21.992;2022-09-04T01:22:22;14.30;;;7.80;;
50709;SDS011;37033;49.994;21.992;2022-09-04T01:29:00;11.00;;;6.90;;
50709;SDS011;37033;49.994;21.992;2022-09-04T01:32:03;10.40;;;7.90;;
50709;SDS011;37033;49.994;21.992;2022-09-04T01:35:02;10.10;;;7.40;;
50709;SDS011;37033;49.994;21.992;2022-09-04T01:38:00;10.70;;;7.40;;
50709;SDS011;37033;49.994;21.992;2022-09-04T01:41:00;10.40;;;7.20;;
50709;SDS011;37033;49.994;21.992;2022-09-04T01:43:55;9.00;;;7.10;;
50709;SDS011;37033;49.994;21.992;2022-09-04T01:46:46;12.20;;;7.40;;
50709;SDS011;37033;49.994;21.992;2022-09-04T01:49:46;9.10;;;7.10;;
50709;SDS011;37033;49.994;21.992;2022-09-04T01:52:45;8.70;;;6.60;;
50709;SDS011;37033;49.994;21.992;2022-09-04T01:55:43;11.60;;;7.60;;
50709;SDS011;37033;49.994;21.992;2022-09-04T01:58:39;11.40;;;7.10;;
50709;SDS011;37033;49.994;21.992;2022-09-04T02:01:36;10.20;;;7.70;;
50709;SDS011;37033;49.994;21.992;2022-09-04T02:04:36;7.70;;;6.90;;
50709;SDS011;37033;49.994;21.992;2022-09-04T02:07:37;10.60;;;7.10;;
50709;SDS011;37033;49.994;21.992;2022-09-04T02:10:36;9.00;;;7.40;;
50709;SDS011;37033;49.994;21.992;2022-09-04T02:13:33;11.00;;;7.00;;
50709;SDS011;37033;49.994;21.992;2022-09-04T02:16:44;11.80;;;6.70;;
50709;SDS011;37033;49.994;21.992;2022-09-04T02:19:54;9.90;;;7.50;;
50709;SDS011;37033;49.994;21.992;2022-09-04T02:23:03;12.50;;;7.00;;
50709;SDS011;37033;49.994;21.992;2022-09-04T02:26:05;9.80;;;6.70;;
50709;SDS011;37033;49.994;21.992;2022-09-04T02:29:02;10.60;;;7.40;;
50709;SDS011;37033;49.994;21.992;2022-09-04T02:32:02;11.20;;;8.40;;
50709;SDS011;37033;49.994;21.992;2022-09-04T02:35:00;12.40;;;8.20;;
50709;SDS011;37033;49.994;21.992;2022-09-04T02:37:58;11.20;;;7.70;;
50709;SDS011;37033;49.994;21.992;2022-09-04T02:40:57;13.50;;;8.60;;
50709;SDS011;37033;49.994;21.992;2022-09-04T02:43:59;14.30;;;8.40;;
50709;SDS011;37033;49.994;21.992;2022-09-04T02:47:05;12.50;;;7.80;;
50709;SDS011;37033;49.994;21.992;2022-09-04T02:50:06;14.50;;;7.90;;
50709;SDS011;37033;49.994;21.992;2022-09-04T02:53:06;15.80;;;8.90;;
50709;SDS011;37033;49.994;21.992;2022-09-04T02:56:09;13.80;;;7.90;;
50709;SDS011;37033;49.994;21.992;2022-09-04T02:59:14;9.70;;;8.00;;
50709;SDS011;37033;49.994;21.992;2022-09-04T03:02:18;14.50;;;9.50;;
50709;SDS011;37033;49.994;21.992;2022-09-04T03:05:16;12.80;;;9.10;;
50709;SDS011;37033;49.994;21.992;2022-09-04T03:08:13;15.10;;;9.10;;
50709;SDS011;37033;49.994;21.992;2022-09-04T03:11:11;18.90;;;9.30;;
50709;SDS011;37033;49.994;21.992;2022-09-04T03:14:08;18.10;;;10.40;;
50709;SDS011;37033;49.994;21.992;2022-09-04T03:17:07;19.50;;;11.50;;
50709;SDS011;37033;49.994;21.992;2022-09-04T03:20:04;19.10;;;11.20;;
50709;SDS011;37033;49.994;21.992;2022-09-04T03:23:03;18.20;;;11.50;;
50709;SDS011;37033;49.994;21.992;2022-09-04T03:26:09;18.20;;;11.40;;
50709;SDS011;37033;49.994;21.992;2022-09-04T03:29:07;17.00;;;10.80;;
50709;SDS011;37033;49.994;21.992;2022-09-04T03:32:09;15.30;;;9.80;;
50709;SDS011;37033;49.994;21.992;2022-09-04T03:35:08;16.60;;;10.90;;
50709;SDS011;37033;49.994;21.992;2022-09-04T03:38:07;14.50;;;9.40;;
50709;SDS011;37033;49.994;21.992;2022-09-04T03:41:07;16.90;;;10.60;;
50709;SDS011;37033;49.994;21.992;2022-09-04T03:44:12;14.30;;;9.50;;
50709;SDS011;37033;49.994;21.992;2022-09-04T03:47:12;14.30;;;10.30;;
50709;SDS011;37033;49.994;21.992;2022-09-04T03:50:16;15.70;;;9.80;;
50709;SDS011;37033;49.994;21.992;2022-09-04T03:53:14;16.00;;;9.50;;
50709;SDS011;37033;49.994;21.992;2022-09-04T04:03:31;14.80;;;9.90;;
50709;SDS011;37033;49.994;21.992;2022-09-04T04:09:38;13.20;;;9.10;;
50709;SDS011;37033;49.994;21.992;2022-09-04T04:12:43;12.20;;;9.00;;
50709;SDS011;37033;49.994;21.992;2022-09-04T04:15:48;13.10;;;9.30;;
50709;SDS011;37033;49.994;21.992;2022-09-04T04:18:53;11.90;;;8.60;;
50709;SDS011;37033;49.994;21.992;2022-09-04T04:22:02;11.40;;;8.20;;
50709;SDS011;37033;49.994;21.992;2022-09-04T04:25:09;11.60;;;8.90;;
50709;SDS011;37033;49.994;21.992;2022-09-04T04:28:16;13.60;;;9.70;;
50709;SDS011;37033;49.994;21.992;2022-09-04T04:31:22;13.60;;;9.10;;
50709;SDS011;37033;49.994;21.992;2022-09-04T04:34:26;11.90;;;9.10;;
50709;SDS011;37033;49.994;21.992;2022-09-04T04:37:28;11.90;;;8.60;;
50709;SDS011;37033;49.994;21.992;2022-09-04T04:40:29;14.30;;;9.70;;
50709;SDS011;37033;49.994;21.992;2022-09-04T04:46:27;13.10;;;9.80;;
50709;SDS011;37033;49.994;21.992;2022-09-04T04:49:47;16.00;;;9.20;;
50709;SDS011;37033;49.994;21.992;2022-09-04T04:52:48;13.50;;;9.80;;
50709;SDS011;37033;49.994;21.992;2022-09-04T04:55:48;17.00;;;10.30;;
50709;SDS011;37033;49.994;21.992;2022-09-04T04:58:54;12.30;;;9.80;;
50709;SDS011;37033;49.994;21.992;2022-09-04T05:01:51;16.30;;;11.00;;
50709;SDS011;37033;49.994;21.992;2022-09-04T05:04:54;16.60;;;10.20;;
50709;SDS011;37033;49.994;21.992;2022-09-04T05:10:40;12.60;;;8.70;;
50709;SDS011;37033;49.994;21.992;2022-09-04T05:13:36;13.80;;;7.20;;
50709;SDS011;37033;49.994;21.992;2022-09-04T05:16:34;14.10;;;9.80;;
50709;SDS011;37033;49.994;21.992;2022-09-04T05:19:37;14.50;;;8.60;;
50709;SDS011;37033;49.994;21.992;2022-09-04T05:22:33;13.00;;;8.60;;
50709;SDS011;37033;49.994;21.992;2022-09-04T05:25:30;11.00;;;8.60;;
50709;SDS011;37033;49.994;21.992;2022-09-04T05:28:30;16.00;;;9.30;;
50709;SDS011;37033;49.994;21.992;2022-09-04T05:31:31;12.70;;;8.80;;
50709;SDS011;37033;49.994;21.992;2022-09-04T05:34:30;14.80;;;8.50;;
50709;SDS011;37033;49.994;21.992;2022-09-04T05:37:28;10.50;;;8.20;;
50709;SDS011;37033;49.994;21.992;2022-09-04T05:40:27;8.80;;;7.90;;
50709;SDS011;37033;49.994;21.992;2022-09-04T05:43:23;10.10;;;7.60;;
50709;SDS011;37033;49.994;21.992;2022-09-04T05:46:24;11.10;;;7.50;;
50709;SDS011;37033;49.994;21.992;2022-09-04T05:49:31;9.40;;;7.10;;
50709;SDS011;37033;49.994;21.992;2022-09-04T05:52:45;8.50;;;6.40;;
50709;SDS011;37033;49.994;21.992;2022-09-04T05:59:14;8.80;;;6.20;;
50709;SDS011;37033;49.994;21.992;2022-09-04T06:02:25;8.00;;;6.50;;
50709;SDS011;37033;49.994;21.992;2022-09-04T06:05:34;7.50;;;5.30;;
50709;SDS011;37033;49.994;21.992;2022-09-04T06:08:36;6.10;;;5.60;;
50709;SDS011;37033;49.994;21.992;2022-09-04T06:15:09;6.10;;;5.10;;
50709;SDS011;37033;49.994;21.992;2022-09-04T06:18:16;5.60;;;4.90;;
50709;SDS011;37033;49.994;21.992;2022-09-04T06:21:29;6.40;;;4.30;;
50709;SDS011;37033;49.994;21.992;2022-09-04T06:24:45;5.20;;;4.70;;
50709;SDS011;37033;49.994;21.992;2022-09-04T06:28:05;4.60;;;4.20;;
50709;SDS011;37033;49.994;21.992;2022-09-04T06:31:05;5.70;;;4.30;;
50709;SDS011;37033;49.994;21.992;2022-09-04T06:34:01;5.00;;;3.70;;
50709;SDS011;37033;49.994;21.992;2022-09-04T06:37:01;5.00;;;4.40;;
50709;SDS011;37033;49.994;21.992;2022-09-04T06:40:09;4.60;;;3.70;;
50709;SDS011;37033;49.994;21.992;2022-09-04T06:43:17;4.20;;;3.80;;
50709;SDS011;37033;49.994;21.992;2022-09-04T06:46:18;6.00;;;3.30;;
50709;SDS011;37033;49.994;21.992;2022-09-04T06:49:14;6.30;;;3.50;;
50709;SDS011;37033;49.994;21.992;2022-09-04T06:52:13;3.30;;;2.70;;
50709;SDS011;37033;49.994;21.992;2022-09-04T06:55:11;3.30;;;3.00;;
50709;SDS011;37033;49.994;21.992;2022-09-04T06:58:18;2.80;;;2.50;;
50709;SDS011;37033;49.994;21.992;2022-09-04T07:01:32;4.60;;;2.80;;
50709;SDS011;37033;49.994;21.992;2022-09-04T07:04:37;2.90;;;2.60;;
50709;SDS011;37033;49.994;21.992;2022-09-04T07:07:40;3.20;;;2.90;;
50709;SDS011;37033;49.994;21.992;2022-09-04T07:10:39;2.50;;;2.30;;
50709;SDS011;37033;49.994;21.992;2022-09-04T07:13:40;5.70;;;3.20;;
50709;SDS011;37033;49.994;21.992;2022-09-04T07:16:49;2.70;;;2.50;;
50709;SDS011;37033;49.994;21.992;2022-09-04T07:20:00;2.20;;;2.10;;
50709;SDS011;37033;49.994;21.992;2022-09-04T07:23:06;2.40;;;2.10;;
50709;SDS011;37033;49.994;21.992;2022-09-04T07:26:13;4.40;;;2.10;;
50709;SDS011;37033;49.994;21.992;2022-09-04T07:29:23;2.80;;;2.10;;
50709;SDS011;37033;49.994;21.992;2022-09-04T07:32:21;3.10;;;2.80;;
50709;SDS011;37033;49.994;21.992;2022-09-04T07:35:17;3.00;;;2.40;;
50709;SDS011;37033;49.994;21.992;2022-09-04T07:38:17;2.50;;;2.30;;
50709;SDS011;37033;49.994;21.992;2022-09-04T07:41:17;2.40;;;2.20;;
50709;SDS011;37033;49.994;21.992;2022-09-04T07:44:17;3.80;;;2.20;;
50709;SDS011;37033;49.994;21.992;2022-09-04T07:47:15;2.60;;;2.30;;
50709;SDS011;37033;49.994;21.992;2022-09-04T07:50:09;3.70;;;2.20;;
50709;SDS011;37033;49.994;21.992;2022-09-04T07:53:12;4.00;;;2.60;;
50709;SDS011;37033;49.994;21.992;2022-09-04T07:59:14;2.40;;;2.20;;
50709;SDS011;37033;49.994;21.992;2022-09-04T08:02:22;2.00;;;1.80;;
50709;SDS011;37033;49.994;21.992;2022-09-04T08:05:24;2.80;;;2.20;;
50709;SDS011;37033;49.994;21.992;2022-09-04T08:08:38;2.50;;;1.70;;
50709;SDS011;37033;49.994;21.992;2022-09-04T08:11:50;2.80;;;1.90;;
50709;SDS011;37033;49.994;21.992;2022-09-04T08:14:58;2.00;;;1.90;;
50709;SDS011;37033;49.994;21.992;2022-09-04T08:18:05;2.60;;;2.20;;
50709;SDS011;37033;49.994;21.992;2022-09-04T08:21:10;2.40;;;1.40;;
50709;SDS011;37033;49.994;21.992;2022-09-04T08:27:36;3.10;;;1.90;;
50709;SDS011;37033;49.994;21.992;2022-09-04T08:30:40;2.40;;;1.90;;
50709;SDS011;37033;49.994;21.992;2022-09-04T08:33:50;4.20;;;2.20;;
50709;SDS011;37033;49.994;21.992;2022-09-04T08:36:56;2.00;;;1.60;;
50709;SDS011;37033;49.994;21.992;2022-09-04T08:40:01;2.10;;;1.90;;
50709;SDS011;37033;49.994;21.992;2022-09-04T08:43:19;2.30;;;1.70;;
50709;SDS011;37033;49.994;21.992;2022-09-04T08:46:23;1.80;;;1.70;;
50709;SDS011;37033;49.994;21.992;2022-09-04T08:56:27;1.70;;;1.60;;
50709;SDS011;37033;49.994;21.992;2022-09-04T08:59:43;3.10;;;1.50;;
50709;SDS011;37033;49.994;21.992;2022-09-04T09:03:19;1.00;;;0.80;;
50709;SDS011;37033;49.994;21.992;2022-09-04T09:06:43;0.80;;;0.70;;
50709;SDS011;37033;49.994;21.992;2022-09-04T09:10:05;0.90;;;0.90;;
50709;SDS011;37033;49.994;21.992;2022-09-04T09:13:25;1.00;;;0.90;;
50709;SDS011;37033;49.994;21.992;2022-09-04T09:16:42;0.70;;;0.70;;
50709;SDS011;37033;49.994;21.992;2022-09-04T09:19:45;0.80;;;0.60;;
50709;SDS011;37033;49.994;21.992;2022-09-04T09:22:45;0.80;;;0.70;;
50709;SDS011;37033;49.994;21.992;2022-09-04T09:25:53;0.80;;;0.70;;
50709;SDS011;37033;49.994;21.992;2022-09-04T09:29:17;2.20;;;0.50;;
50709;SDS011;37033;49.994;21.992;2022-09-04T09:39:20;0.70;;;0.60;;
50709;SDS011;37033;49.994;21.992;2022-09-04T09:42:37;2.50;;;0.50;;
50709;SDS011;37033;49.994;21.992;2022-09-04T09:45:50;0.50;;;0.50;;
50709;SDS011;37033;49.994;21.992;2022-09-04T09:49:12;1.30;;;0.40;;
50709;SDS011;37033;49.994;21.992;2022-09-04T09:52:32;0.70;;;0.60;;
50709;SDS011;37033;49.994;21.992;2022-09-04T09:56:04;0.50;;;0.40;;
50709;SDS011;37033;49.994;21.992;2022-09-04T10:02:27;2.40;;;0.60;;
50709;SDS011;37033;49.994;21.992;2022-09-04T10:05:57;0.70;;;0.60;;
50709;SDS011;37033;49.994;21.992;2022-09-04T10:12:35;0.80;;;0.60;;
50709;SDS011;37033;49.994;21.992;2022-09-04T10:15:50;2.00;;;0.60;;
50709;SDS011;37033;49.994;21.992;2022-09-04T10:18:55;0.60;;;0.60;;
50709;SDS011;37033;49.994;21.992;2022-09-04T10:25:46;0.70;;;0.50;;
50709;SDS011;37033;49.994;21.992;2022-09-04T10:35:47;0.80;;;0.60;;
50709;SDS011;37033;49.994;21.992;2022-09-04T10:38:58;0.50;;;0.50;;
50709;SDS011;37033;49.994;21.992;2022-09-04T10:42:22;1.30;;;0.40;;
50709;SDS011;37033;49.994;21.992;2022-09-04T10:45:31;1.10;;;0.60;;
50709;SDS011;37033;49.994;21.992;2022-09-04T10:52:00;1.00;;;0.60;;
50709;SDS011;37033;49.994;21.992;2022-09-04T10:55:08;0.70;;;0.50;;
50709;SDS011;37033;49.994;21.992;2022-09-04T11:05:07;0.50;;;0.40;;
50709;SDS011;37033;49.994;21.992;2022-09-04T11:08:16;0.80;;;0.50;;
50709;SDS011;37033;49.994;21.992;2022-09-04T11:11:29;1.80;;;0.50;;
50709;SDS011;37033;49.994;21.992;2022-09-04T11:14:59;0.90;;;0.50;;
50709;SDS011;37033;49.994;21.992;2022-09-04T11:18:12;1.30;;;0.50;;
50709;SDS011;37033;49.994;21.992;2022-09-04T11:28:29;0.80;;;0.60;;
50709;SDS011;37033;49.994;21.992;2022-09-04T11:31:41;0.70;;;0.60;;
50709;SDS011;37033;49.994;21.992;2022-09-04T11:34:54;0.40;;;0.40;;
50709;SDS011;37033;49.994;21.992;2022-09-04T11:38:15;0.50;;;0.40;;
50709;SDS011;37033;49.994;21.992;2022-09-04T11:44:51;0.30;;;0.30;;
50709;SDS011;37033;49.994;21.992;2022-09-04T11:51:15;0.90;;;0.50;;
50709;SDS011;37033;49.994;21.992;2022-09-04T11:54:30;0.70;;;0.50;;
50709;SDS011;37033;49.994;21.992;2022-09-04T11:57:34;0.50;;;0.30;;
50709;SDS011;37033;49.994;21.992;2022-09-04T12:00:32;2.70;;;0.50;;
50709;SDS011;37033;49.994;21.992;2022-09-04T12:06:53;1.80;;;0.40;;
50709;SDS011;37033;49.994;21.992;2022-09-04T12:10:08;0.30;;;0.30;;
50709;SDS011;37033;49.994;21.992;2022-09-04T12:16:34;0.70;;;0.40;;
50709;SDS011;37033;49.994;21.992;2022-09-04T12:20:05;0.50;;;0.40;;
50709;SDS011;37033;49.994;21.992;2022-09-04T12:23:19;1.70;;;0.50;;
50709;SDS011;37033;49.994;21.992;2022-09-04T12:26:24;1.00;;;0.50;;
50709;SDS011;37033;49.994;21.992;2022-09-04T12:32:40;0.90;;;0.50;;
50709;SDS011;37033;49.994;21.992;2022-09-04T12:39:28;0.70;;;0.50;;
50709;SDS011;37033;49.994;21.992;2022-09-04T12:42:40;1.50;;;0.30;;
50709;SDS011;37033;49.994;21.992;2022-09-04T12:45:39;0.30;;;0.30;;
50709;SDS011;37033;49.994;21.992;2022-09-04T12:48:37;0.80;;;0.50;;
50709;SDS011;37033;49.994;21.992;2022-09-04T12:51:40;1.50;;;0.40;;
50709;SDS011;37033;49.994;21.992;2022-09-04T12:54:38;1.00;;;0.70;;
50709;SDS011;37033;49.994;21.992;2022-09-04T12:57:40;1.90;;;0.50;;
50709;SDS011;37033;49.994;21.992;2022-09-04T13:00:44;0.40;;;0.30;;
50709;SDS011;37033;49.994;21.992;2022-09-04T13:03:42;2.00;;;0.50;;
50709;SDS011;37033;49.994;21.992;2022-09-04T13:06:42;0.70;;;0.40;;
50709;SDS011;37033;49.994;21.992;2022-09-04T13:09:40;1.70;;;0.40;;
50709;SDS011;37033;49.994;21.992;2022-09-04T13:12:40;1.60;;;0.50;;
50709;SDS011;37033;49.994;21.992;2022-09-04T13:15:40;0.80;;;0.30;;
50709;SDS011;37033;49.994;21.992;2022-09-04T13:18:43;1.20;;;1.00;;
50709;SDS011;37033;49.994;21.992;2022-09-04T13:21:55;0.50;;;0.40;;
50709;SDS011;37033;49.994;21.992;2022-09-04T13:24:59;1.00;;;0.50;;
50709;SDS011;37033;49.994;21.992;2022-09-04T13:28:00;1.50;;;0.40;;
50709;SDS011;37033;49.994;21.992;2022-09-04T13:30:59;0.80;;;0.40;;
50709;SDS011;37033;49.994;21.992;2022-09-04T13:34:10;1.30;;;0.50;;
50709;SDS011;37033;49.994;21.992;2022-09-04T13:37:10;1.00;;;0.90;;
50709;SDS011;37033;49.994;21.992;2022-09-04T13:40:10;1.00;;;0.70;;
50709;SDS011;37033;49.994;21.992;2022-09-04T13:43:22;1.00;;;0.50;;
50709;SDS011;37033;49.994;21.992;2022-09-04T13:46:26;1.20;;;0.60;;
50709;SDS011;37033;49.994;21.992;2022-09-04T13:49:20;4.50;;;0.70;;
50709;SDS011;37033;49.994;21.992;2022-09-04T13:52:17;1.00;;;0.60;;
50709;SDS011;37033;49.994;21.992;2022-09-04T13:55:15;3.60;;;1.60;;
50709;SDS011;37033;49.994;21.992;2022-09-04T13:58:09;1.40;;;0.70;;
50709;SDS011;37033;49.994;21.992;2022-09-04T14:01:07;2.90;;;0.70;;
50709;SDS011;37033;49.994;21.992;2022-09-04T14:04:03;2.80;;;2.50;;
50709;SDS011;37033;49.994;21.992;2022-09-04T14:06:57;2.20;;;1.40;;
50709;SDS011;37033;49.994;21.992;2022-09-04T14:09:52;2.30;;;2.10;;
50709;SDS011;37033;49.994;21.992;2022-09-04T14:12:56;7.80;;;5.00;;
50709;SDS011;37033;49.994;21.992;2022-09-04T14:16:02;6.40;;;5.00;;
50709;SDS011;37033;49.994;21.992;2022-09-04T14:25:28;6.00;;;3.90;;
50709;SDS011;37033;49.994;21.992;2022-09-04T14:28:25;5.00;;;3.30;;
50709;SDS011;37033;49.994;21.992;2022-09-04T14:31:23;1.90;;;1.40;;
50709;SDS011;37033;49.994;21.992;2022-09-04T14:34:22;2.00;;;0.80;;
50709;SDS011;37033;49.994;21.992;2022-09-04T14:37:30;1.70;;;0.90;;
50709;SDS011;37033;49.994;21.992;2022-09-04T14:40:35;14.80;;;9.80;;
50709;SDS011;37033;49.994;21.992;2022-09-04T14:43:29;1.20;;;1.00;;
50709;SDS011;37033;49.994;21.992;2022-09-04T14:46:28;1.10;;;1.00;;
50709;SDS011;37033;49.994;21.992;2022-09-04T14:49:24;2.80;;;1.50;;
50709;SDS011;37033;49.994;21.992;2022-09-04T14:52:17;1.90;;;1.20;;
50709;SDS011;37033;49.994;21.992;2022-09-04T14:55:12;1.70;;;0.80;;
50709;SDS011;37033;49.994;21.992;2022-09-04T14:58:07;2.60;;;1.40;;
50709;SDS011;37033;49.994;21.992;2022-09-04T15:01:05;2.90;;;1.70;;
50709;SDS011;37033;49.994;21.992;2022-09-04T15:04:06;4.00;;;2.10;;
50709;SDS011;37033;49.994;21.992;2022-09-04T15:07:17;3.30;;;2.00;;
50709;SDS011;37033;49.994;21.992;2022-09-04T15:10:15;1.70;;;1.20;;
50709;SDS011;37033;49.994;21.992;2022-09-04T15:16:44;1.90;;;1.20;;
50709;SDS011;37033;49.994;21.992;2022-09-04T15:19:43;4.00;;;1.30;;
50709;SDS011;37033;49.994;21.992;2022-09-04T15:22:37;4.90;;;1.50;;
50709;SDS011;37033;49.994;21.992;2022-09-04T15:25:45;1.40;;;1.20;;
50709;SDS011;37033;49.994;21.992;2022-09-04T15:28:44;1.90;;;1.40;;
50709;SDS011;37033;49.994;21.992;2022-09-04T15:31:37;1.50;;;1.00;;
50709;SDS011;37033;49.994;21.992;2022-09-04T15:34:29;2.50;;;1.20;;
50709;SDS011;37033;49.994;21.992;2022-09-04T15:37:21;2.50;;;1.80;;
50709;SDS011;37033;49.994;21.992;2022-09-04T15:40:15;3.20;;;1.90;;
50709;SDS011;37033;49.994;21.992;2022-09-04T15:43:18;5.80;;;1.40;;
50709;SDS011;37033;49.994;21.992;2022-09-04T15:46:17;3.10;;;1.30;;
50709;SDS011;37033;49.994;21.992;2022-09-04T15:49:16;2.60;;;1.50;;
50709;SDS011;37033;49.994;21.992;2022-09-04T15:52:18;2.10;;;1.20;;
50709;SDS011;37033;49.994;21.992;2022-09-04T15:55:20;2.80;;;1.30;;
50709;SDS011;37033;49.994;21.992;2022-09-04T15:58:15;1.90;;;1.50;;
50709;SDS011;37033;49.994;21.992;2022-09-04T16:01:13;3.30;;;1.70;;
50709;SDS011;37033;49.994;21.992;2022-09-04T16:04:08;2.40;;;2.10;;
50709;SDS011;37033;49.994;21.992;2022-09-04T16:07:12;5.60;;;4.60;;
50709;SDS011;37033;49.994;21.992;2022-09-04T16:10:20;9.20;;;5.80;;
50709;SDS011;37033;49.994;21.992;2022-09-04T16:13:29;6.70;;;4.90;;
50709;SDS011;37033;49.994;21.992;2022-09-04T16:16:25;7.80;;;4.80;;
50709;SDS011;37033;49.994;21.992;2022-09-04T16:19:23;20.70;;;12.20;;
50709;SDS011;37033;49.994;21.992;2022-09-04T16:22:22;23.90;;;13.70;;
50709;SDS011;37033;49.994;21.992;2022-09-04T16:25:21;10.90;;;6.90;;
50709;SDS011;37033;49.994;21.992;2022-09-04T16:28:15;5.90;;;5.30;;
50709;SDS011;37033;49.994;21.992;2022-09-04T16:31:21;6.70;;;4.40;;
50709;SDS011;37033;49.994;21.992;2022-09-04T16:34:20;5.80;;;3.00;;
50709;SDS011;37033;49.994;21.992;2022-09-04T16:37:12;6.10;;;3.10;;
50709;SDS011;37033;49.994;21.992;2022-09-04T16:40:12;11.90;;;7.50;;
50709;SDS011;37033;49.994;21.992;2022-09-04T16:43:15;9.30;;;7.20;;
50709;SDS011;37033;49.994;21.992;2022-09-04T16:46:11;13.70;;;7.50;;
50709;SDS011;37033;49.994;21.992;2022-09-04T16:49:14;10.80;;;8.20;;
50709;SDS011;37033;49.994;21.992;2022-09-04T16:55:33;12.30;;;8.00;;
50709;SDS011;37033;49.994;21.992;2022-09-04T16:58:36;12.60;;;7.30;;
50709;SDS011;37033;49.994;21.992;2022-09-04T17:01:39;16.60;;;8.80;;
50709;SDS011;37033;49.994;21.992;2022-09-04T17:04:34;26.40;;;14.90;;
50709;SDS011;37033;49.994;21.992;2022-09-04T17:07:28;20.50;;;12.70;;
50709;SDS011;37033;49.994;21.992;2022-09-04T17:10:32;21.10;;;9.80;;
50709;SDS011;37033;49.994;21.992;2022-09-04T17:13:29;14.80;;;8.90;;
50709;SDS011;37033;49.994;21.992;2022-09-04T17:16:30;11.90;;;6.50;;
50709;SDS011;37033;49.994;21.992;2022-09-04T17:19:23;11.40;;;6.60;;
50709;SDS011;37033;49.994;21.992;2022-09-04T17:22:17;9.20;;;6.80;;
50709;SDS011;37033;49.994;21.992;2022-09-04T17:25:22;7.80;;;5.90;;
50709;SDS011;37033;49.994;21.992;2022-09-04T17:28:23;8.20;;;5.30;;
50709;SDS011;37033;49.994;21.992;2022-09-04T17:31:18;8.20;;;4.40;;
50709;SDS011;37033;49.994;21.992;2022-09-04T17:34:16;6.10;;;3.80;;
50709;SDS011;37033;49.994;21.992;2022-09-04T17:37:11;7.30;;;3.80;;
50709;SDS011;37033;49.994;21.992;2022-09-04T17:40:07;5.40;;;3.40;;
50709;SDS011;37033;49.994;21.992;2022-09-04T17:43:12;7.10;;;2.90;;
50709;SDS011;37033;49.994;21.992;2022-09-04T17:46:15;10.30;;;3.60;;
50709;SDS011;37033;49.994;21.992;2022-09-04T17:49:15;4.80;;;3.20;;
50709;SDS011;37033;49.994;21.992;2022-09-04T17:52:06;12.10;;;7.80;;
50709;SDS011;37033;49.994;21.992;2022-09-04T17:55:00;13.40;;;7.50;;
50709;SDS011;37033;49.994;21.992;2022-09-04T17:57:59;9.00;;;5.70;;
50709;SDS011;37033;49.994;21.992;2022-09-04T18:00:56;12.40;;;4.90;;
50709;SDS011;37033;49.994;21.992;2022-09-04T18:03:56;10.70;;;4.10;;
50709;SDS011;37033;49.994;21.992;2022-09-04T18:07:02;9.60;;;4.40;;
50709;SDS011;37033;49.994;21.992;2022-09-04T18:10:02;6.10;;;3.40;;
50709;SDS011;37033;49.994;21.992;2022-09-04T18:13:11;5.40;;;3.60;;
50709;SDS011;37033;49.994;21.992;2022-09-04T18:16:09;9.40;;;2.90;;
50709;SDS011;37033;49.994;21.992;2022-09-04T18:19:28;5.10;;;3.00;;
50709;SDS011;37033;49.994;21.992;2022-09-04T18:22:25;7.40;;;3.50;;
50709;SDS011;37033;49.994;21.992;2022-09-04T18:25:17;9.90;;;4.00;;
50709;SDS011;37033;49.994;21.992;2022-09-04T18:28:13;11.30;;;3.30;;
50709;SDS011;37033;49.994;21.992;2022-09-04T18:34:06;8.50;;;3.80;;
50709;SDS011;37033;49.994;21.992;2022-09-04T18:37:08;7.50;;;3.90;;
50709;SDS011;37033;49.994;21.992;2022-09-04T18:40:06;10.30;;;3.40;;
50709;SDS011;37033;49.994;21.992;2022-09-04T18:43:00;9.20;;;3.50;;
50709;SDS011;37033;49.994;21.992;2022-09-04T18:45:55;6.60;;;3.80;;
50709;SDS011;37033;49.994;21.992;2022-09-04T18:48:56;7.80;;;3.50;;
50709;SDS011;37033;49.994;21.992;2022-09-04T18:51:49;10.10;;;3.80;;
50709;SDS011;37033;49.994;21.992;2022-09-04T18:54:44;7.20;;;4.10;;
50709;SDS011;37033;49.994;21.992;2022-09-04T18:57:40;7.50;;;4.10;;
50709;SDS011;37033;49.994;21.992;2022-09-04T19:00:36;8.40;;;4.70;;
50709;SDS011;37033;49.994;21.992;2022-09-04T19:03:38;4.90;;;3.20;;
50709;SDS011;37033;49.994;21.992;2022-09-04T19:06:32;10.10;;;4.40;;
50709;SDS011;37033;49.994;21.992;2022-09-04T19:09:26;9.40;;;5.40;;
50709;SDS011;37033;49.994;21.992;2022-09-04T19:12:18;11.40;;;5.60;;
50709;SDS011;37033;49.994;21.992;2022-09-04T19:15:19;11.00;;;7.60;;
50709;SDS011;37033;49.994;21.992;2022-09-04T19:18:15;11.60;;;7.10;;
50709;SDS011;37033;49.994;21.992;2022-09-04T19:21:15;9.60;;;6.70;;
50709;SDS011;37033;49.994;21.992;2022-09-04T19:24:24;12.10;;;6.10;;
50709;SDS011;37033;49.994;21.992;2022-09-04T19:27:21;17.70;;;5.10;;
50709;SDS011;37033;49.994;21.992;2022-09-04T19:30:18;7.60;;;4.90;;
50709;SDS011;37033;49.994;21.992;2022-09-04T19:33:12;7.30;;;4.70;;
50709;SDS011;37033;49.994;21.992;2022-09-04T19:36:11;8.80;;;4.60;;
50709;SDS011;37033;49.994;21.992;2022-09-04T19:39:13;12.10;;;5.60;;
50709;SDS011;37033;49.994;21.992;2022-09-04T19:42:15;10.70;;;8.20;;
50709;SDS011;37033;49.994;21.992;2022-09-04T19:45:11;19.10;;;11.70;;
50709;SDS011;37033;49.994;21.992;2022-09-04T19:48:14;17.60;;;10.80;;
50709;SDS011;37033;49.994;21.992;2022-09-04T19:51:12;14.90;;;10.60;;
50709;SDS011;37033;49.994;21.992;2022-09-04T19:54:17;27.20;;;15.40;;
50709;SDS011;37033;49.994;21.992;2022-09-04T19:57:19;27.20;;;12.80;;